sensor_id;sensor_type;location;lat;lon;timestamp;P1;durP1;ratioP1;P2;durP2;ratioP2
49502;SDS011;35409;48.776;9.204;2023-01-29T00:01:02;12.43;;;6.90;;
49502;SDS011;35409;48.776;9.204;2023-01-29T00:03:29;11.65;;;7.22;;
49502;SDS011;35409;48.776;9.204;2023-01-29T00:05:55;11.80;;;6.95;;
49502;SDS011;35409;48.776;9.204;2023-01-29T00:08:20;10.07;;;6.57;;
49502;SDS011;35409;48.776;9.204;2023-01-29T00:10:46;8.23;;;6.05;;
49502;SDS011;35409;48.776;9.204;2023-01-29T00:13:11;8.23;;;6.10;;
49502;SDS011;35409;48.776;9.204;2023-01-29T00:15:37;10.70;;;6.90;;
49502;SDS011;35409;48.776;9.204;2023-01-29T00:18:03;11.60;;;7.38;;
49502;SDS011;35409;48.776;9.204;2023-01-29T00:20:29;11.00;;;7.20;;
49502;SDS011;35409;48.776;9.204;2023-01-29T00:22:55;8.90;;;6.97;;
49502;SDS011;35409;48.776;9.204;2023-01-29T00:25:20;8.50;;;6.47;;
49502;SDS011;35409;48.776;9.204;2023-01-29T00:27:46;13.90;;;7.30;;
49502;SDS011;35409;48.776;9.204;2023-01-29T00:30:12;11.77;;;7.53;;
49502;SDS011;35409;48.776;9.204;2023-01-29T00:32:38;12.23;;;7.28;;
49502;SDS011;35409;48.776;9.204;2023-01-29T00:35:05;12.27;;;7.35;;
49502;SDS011;35409;48.776;9.204;2023-01-29T00:37:31;13.27;;;7.57;;
49502;SDS011;35409;48.776;9.204;2023-01-29T00:39:57;10.77;;;7.18;;
49502;SDS011;35409;48.776;9.204;2023-01-29T00:42:23;8.90;;;6.88;;
49502;SDS011;35409;48.776;9.204;2023-01-29T00:45:08;12.95;;;7.60;;
49502;SDS011;35409;48.776;9.204;2023-01-29T00:47:34;13.25;;;7.20;;
49502;SDS011;35409;48.776;9.204;2023-01-29T00:50:09;11.85;;;7.72;;
49502;SDS011;35409;48.776;9.204;2023-01-29T00:52:35;12.55;;;7.93;;
49502;SDS011;35409;48.776;9.204;2023-01-29T00:55:02;12.75;;;8.05;;
49502;SDS011;35409;48.776;9.204;2023-01-29T00:57:30;14.32;;;7.72;;
49502;SDS011;35409;48.776;9.204;2023-01-29T00:59:56;10.73;;;7.75;;
49502;SDS011;35409;48.776;9.204;2023-01-29T01:02:22;10.48;;;7.35;;
49502;SDS011;35409;48.776;9.204;2023-01-29T01:05:07;9.73;;;7.07;;
49502;SDS011;35409;48.776;9.204;2023-01-29T01:07:37;12.02;;;7.88;;
49502;SDS011;35409;48.776;9.204;2023-01-29T01:10:06;12.55;;;7.93;;
49502;SDS011;35409;48.776;9.204;2023-01-29T01:12:56;12.27;;;7.72;;
49502;SDS011;35409;48.776;9.204;2023-01-29T01:15:24;10.27;;;7.03;;
49502;SDS011;35409;48.776;9.204;2023-01-29T01:17:52;15.20;;;7.90;;
49502;SDS011;35409;48.776;9.204;2023-01-29T01:20:19;11.73;;;6.82;;
49502;SDS011;35409;48.776;9.204;2023-01-29T01:22:45;9.55;;;6.85;;
49502;SDS011;35409;48.776;9.204;2023-01-29T01:25:11;10.52;;;7.05;;
49502;SDS011;35409;48.776;9.204;2023-01-29T01:27:37;8.80;;;6.85;;
49502;SDS011;35409;48.776;9.204;2023-01-29T01:30:06;10.95;;;7.60;;
49502;SDS011;35409;48.776;9.204;2023-01-29T01:32:33;11.13;;;7.00;;
49502;SDS011;35409;48.776;9.204;2023-01-29T01:34:58;10.38;;;7.20;;
49502;SDS011;35409;48.776;9.204;2023-01-29T01:37:24;10.85;;;7.13;;
49502;SDS011;35409;48.776;9.204;2023-01-29T01:39:49;10.85;;;7.55;;
49502;SDS011;35409;48.776;9.204;2023-01-29T01:42:15;11.27;;;7.15;;
49502;SDS011;35409;48.776;9.204;2023-01-29T01:47:21;11.45;;;6.75;;
49502;SDS011;35409;48.776;9.204;2023-01-29T01:50:05;11.57;;;6.82;;
49502;SDS011;35409;48.776;9.204;2023-01-29T01:52:36;11.57;;;7.10;;
49502;SDS011;35409;48.776;9.204;2023-01-29T01:55:07;12.20;;;7.10;;
49502;SDS011;35409;48.776;9.204;2023-01-29T01:57:36;13.82;;;7.30;;
49502;SDS011;35409;48.776;9.204;2023-01-29T02:00:05;11.80;;;6.75;;
49502;SDS011;35409;48.776;9.204;2023-01-29T02:02:37;9.75;;;7.30;;
49502;SDS011;35409;48.776;9.204;2023-01-29T02:05:23;10.70;;;7.35;;
49502;SDS011;35409;48.776;9.204;2023-01-29T02:08:08;12.82;;;7.93;;
49502;SDS011;35409;48.776;9.204;2023-01-29T02:10:53;10.75;;;8.00;;
49502;SDS011;35409;48.776;9.204;2023-01-29T02:13:19;10.77;;;7.53;;
49502;SDS011;35409;48.776;9.204;2023-01-29T02:15:45;9.95;;;7.53;;
49502;SDS011;35409;48.776;9.204;2023-01-29T02:18:14;12.82;;;7.00;;
49502;SDS011;35409;48.776;9.204;2023-01-29T02:20:43;11.27;;;7.40;;
49502;SDS011;35409;48.776;9.204;2023-01-29T02:23:24;11.27;;;7.22;;
49502;SDS011;35409;48.776;9.204;2023-01-29T02:26:08;12.55;;;7.47;;
49502;SDS011;35409;48.776;9.204;2023-01-29T02:28:46;11.10;;;6.82;;
49502;SDS011;35409;48.776;9.204;2023-01-29T02:31:36;14.90;;;8.48;;
49502;SDS011;35409;48.776;9.204;2023-01-29T02:35:09;10.68;;;6.75;;
49502;SDS011;35409;48.776;9.204;2023-01-29T02:37:22;11.95;;;7.30;;
49502;SDS011;35409;48.776;9.204;2023-01-29T02:40:17;11.60;;;7.07;;
49502;SDS011;35409;48.776;9.204;2023-01-29T02:48:28;9.35;;;6.47;;
49502;SDS011;35409;48.776;9.204;2023-01-29T02:51:20;10.38;;;7.05;;
49502;SDS011;35409;48.776;9.204;2023-01-29T02:56:58;14.98;;;7.55;;
49502;SDS011;35409;48.776;9.204;2023-01-29T02:59:36;12.82;;;6.88;;
49502;SDS011;35409;48.776;9.204;2023-01-29T03:02:10;10.13;;;6.57;;
49502;SDS011;35409;48.776;9.204;2023-01-29T03:04:40;13.18;;;6.43;;
49502;SDS011;35409;48.776;9.204;2023-01-29T03:07:14;10.52;;;6.65;;
49502;SDS011;35409;48.776;9.204;2023-01-29T03:10:04;10.50;;;7.28;;
49502;SDS011;35409;48.776;9.204;2023-01-29T03:12:35;10.63;;;7.18;;
49502;SDS011;35409;48.776;9.204;2023-01-29T03:15:09;10.30;;;7.05;;
49502;SDS011;35409;48.776;9.204;2023-01-29T03:17:50;9.73;;;6.43;;
49502;SDS011;35409;48.776;9.204;2023-01-29T03:20:34;11.88;;;7.35;;
49502;SDS011;35409;48.776;9.204;2023-01-29T03:23:12;10.07;;;6.35;;
49502;SDS011;35409;48.776;9.204;2023-01-29T03:25:48;11.45;;;7.22;;
49502;SDS011;35409;48.776;9.204;2023-01-29T03:28:39;10.25;;;7.25;;
49502;SDS011;35409;48.776;9.204;2023-01-29T03:31:27;11.48;;;7.07;;
49502;SDS011;35409;48.776;9.204;2023-01-29T03:34:15;12.57;;;6.63;;
49502;SDS011;35409;48.776;9.204;2023-01-29T03:36:57;10.95;;;6.30;;
49502;SDS011;35409;48.776;9.204;2023-01-29T03:39:27;9.70;;;5.90;;
49502;SDS011;35409;48.776;9.204;2023-01-29T03:42:01;9.23;;;5.78;;
49502;SDS011;35409;48.776;9.204;2023-01-29T03:44:34;8.55;;;6.13;;
49502;SDS011;35409;48.776;9.204;2023-01-29T03:50:27;8.05;;;6.13;;
49502;SDS011;35409;48.776;9.204;2023-01-29T03:53:13;8.63;;;6.20;;
49502;SDS011;35409;48.776;9.204;2023-01-29T04:01:05;12.13;;;7.03;;
49502;SDS011;35409;48.776;9.204;2023-01-29T04:03:39;10.82;;;6.50;;
49502;SDS011;35409;48.776;9.204;2023-01-29T04:08:47;10.13;;;6.43;;
49502;SDS011;35409;48.776;9.204;2023-01-29T04:11:19;9.18;;;6.15;;
49502;SDS011;35409;48.776;9.204;2023-01-29T04:13:46;8.18;;;5.80;;
49502;SDS011;35409;48.776;9.204;2023-01-29T04:16:32;10.35;;;6.90;;
49502;SDS011;35409;48.776;9.204;2023-01-29T04:19:05;11.13;;;7.00;;
49502;SDS011;35409;48.776;9.204;2023-01-29T04:21:31;12.05;;;6.47;;
49502;SDS011;35409;48.776;9.204;2023-01-29T04:23:58;10.23;;;7.10;;
49502;SDS011;35409;48.776;9.204;2023-01-29T04:31:25;10.38;;;6.95;;
49502;SDS011;35409;48.776;9.204;2023-01-29T04:39:44;11.75;;;7.28;;
49502;SDS011;35409;48.776;9.204;2023-01-29T04:42:30;11.10;;;6.95;;
49502;SDS011;35409;48.776;9.204;2023-01-29T04:48:18;9.25;;;6.50;;
49502;SDS011;35409;48.776;9.204;2023-01-29T04:53:36;10.70;;;6.80;;
49502;SDS011;35409;48.776;9.204;2023-01-29T04:58:49;10.32;;;6.75;;
49502;SDS011;35409;48.776;9.204;2023-01-29T05:01:20;12.40;;;6.90;;
49502;SDS011;35409;48.776;9.204;2023-01-29T05:03:49;8.40;;;6.07;;
49502;SDS011;35409;48.776;9.204;2023-01-29T05:06:18;11.38;;;6.88;;
49502;SDS011;35409;48.776;9.204;2023-01-29T05:08:45;10.48;;;6.60;;
49502;SDS011;35409;48.776;9.204;2023-01-29T05:11:13;10.48;;;6.68;;
49502;SDS011;35409;48.776;9.204;2023-01-29T05:13:39;11.82;;;6.80;;
49502;SDS011;35409;48.776;9.204;2023-01-29T05:16:08;11.68;;;7.35;;
49502;SDS011;35409;48.776;9.204;2023-01-29T05:18:39;11.68;;;6.97;;
49502;SDS011;35409;48.776;9.204;2023-01-29T05:21:06;12.23;;;6.88;;
49502;SDS011;35409;48.776;9.204;2023-01-29T05:23:33;8.98;;;6.72;;
49502;SDS011;35409;48.776;9.204;2023-01-29T05:25:59;12.15;;;7.28;;
49502;SDS011;35409;48.776;9.204;2023-01-29T05:28:24;9.02;;;6.82;;
49502;SDS011;35409;48.776;9.204;2023-01-29T05:30:51;12.82;;;7.65;;
49502;SDS011;35409;48.776;9.204;2023-01-29T05:33:20;9.80;;;7.25;;
49502;SDS011;35409;48.776;9.204;2023-01-29T05:35:49;10.90;;;7.32;;
49502;SDS011;35409;48.776;9.204;2023-01-29T05:38:15;13.07;;;7.90;;
49502;SDS011;35409;48.776;9.204;2023-01-29T05:40:41;11.25;;;6.90;;
49502;SDS011;35409;48.776;9.204;2023-01-29T05:43:28;10.85;;;7.25;;
49502;SDS011;35409;48.776;9.204;2023-01-29T05:45:57;11.70;;;7.60;;
49502;SDS011;35409;48.776;9.204;2023-01-29T05:50:50;12.25;;;6.38;;
49502;SDS011;35409;48.776;9.204;2023-01-29T05:53:15;11.88;;;7.50;;
49502;SDS011;35409;48.776;9.204;2023-01-29T05:55:45;13.88;;;7.85;;
49502;SDS011;35409;48.776;9.204;2023-01-29T05:58:11;11.88;;;7.30;;
49502;SDS011;35409;48.776;9.204;2023-01-29T06:00:37;11.82;;;8.07;;
49502;SDS011;35409;48.776;9.204;2023-01-29T06:03:03;11.23;;;7.07;;
49502;SDS011;35409;48.776;9.204;2023-01-29T06:05:28;11.60;;;8.00;;
49502;SDS011;35409;48.776;9.204;2023-01-29T06:07:54;14.90;;;8.20;;
49502;SDS011;35409;48.776;9.204;2023-01-29T06:10:19;10.90;;;7.32;;
49502;SDS011;35409;48.776;9.204;2023-01-29T06:12:45;15.27;;;8.68;;
49502;SDS011;35409;48.776;9.204;2023-01-29T06:15:11;11.18;;;7.72;;
49502;SDS011;35409;48.776;9.204;2023-01-29T06:17:39;10.90;;;8.27;;
49502;SDS011;35409;48.776;9.204;2023-01-29T06:20:05;12.63;;;7.85;;
49502;SDS011;35409;48.776;9.204;2023-01-29T06:22:31;12.85;;;7.57;;
49502;SDS011;35409;48.776;9.204;2023-01-29T06:24:57;11.00;;;7.53;;
49502;SDS011;35409;48.776;9.204;2023-01-29T06:27:23;13.45;;;7.28;;
49502;SDS011;35409;48.776;9.204;2023-01-29T06:29:48;13.80;;;8.00;;
49502;SDS011;35409;48.776;9.204;2023-01-29T06:32:14;11.25;;;8.27;;
49502;SDS011;35409;48.776;9.204;2023-01-29T06:34:40;11.07;;;7.38;;
49502;SDS011;35409;48.776;9.204;2023-01-29T06:37:05;12.75;;;7.80;;
49502;SDS011;35409;48.776;9.204;2023-01-29T06:39:32;11.70;;;8.52;;
49502;SDS011;35409;48.776;9.204;2023-01-29T06:41:58;11.40;;;7.10;;
49502;SDS011;35409;48.776;9.204;2023-01-29T06:44:23;12.68;;;7.60;;
49502;SDS011;35409;48.776;9.204;2023-01-29T06:46:49;13.13;;;7.95;;
49502;SDS011;35409;48.776;9.204;2023-01-29T06:49:14;10.57;;;7.63;;
49502;SDS011;35409;48.776;9.204;2023-01-29T06:51:40;11.27;;;8.07;;
49502;SDS011;35409;48.776;9.204;2023-01-29T06:54:06;13.52;;;7.78;;
49502;SDS011;35409;48.776;9.204;2023-01-29T06:56:32;12.73;;;7.22;;
49502;SDS011;35409;48.776;9.204;2023-01-29T06:58:58;13.27;;;7.30;;
49502;SDS011;35409;48.776;9.204;2023-01-29T07:01:24;10.60;;;6.60;;
49502;SDS011;35409;48.776;9.204;2023-01-29T07:03:50;10.13;;;6.65;;
49502;SDS011;35409;48.776;9.204;2023-01-29T07:06:16;9.85;;;6.80;;
49502;SDS011;35409;48.776;9.204;2023-01-29T07:08:42;11.88;;;7.30;;
49502;SDS011;35409;48.776;9.204;2023-01-29T07:11:07;11.02;;;6.82;;
49502;SDS011;35409;48.776;9.204;2023-01-29T07:13:33;13.50;;;7.57;;
49502;SDS011;35409;48.776;9.204;2023-01-29T07:15:59;12.18;;;7.05;;
49502;SDS011;35409;48.776;9.204;2023-01-29T07:18:26;10.50;;;7.03;;
49502;SDS011;35409;48.776;9.204;2023-01-29T07:20:53;12.63;;;7.53;;
49502;SDS011;35409;48.776;9.204;2023-01-29T07:23:18;12.70;;;7.22;;
49502;SDS011;35409;48.776;9.204;2023-01-29T07:25:44;12.85;;;7.65;;
49502;SDS011;35409;48.776;9.204;2023-01-29T07:28:10;11.15;;;7.60;;
49502;SDS011;35409;48.776;9.204;2023-01-29T07:30:36;11.32;;;6.88;;
49502;SDS011;35409;48.776;9.204;2023-01-29T07:33:02;15.20;;;8.10;;
49502;SDS011;35409;48.776;9.204;2023-01-29T07:35:29;11.73;;;7.25;;
49502;SDS011;35409;48.776;9.204;2023-01-29T07:37:56;14.52;;;7.82;;
49502;SDS011;35409;48.776;9.204;2023-01-29T07:40:22;21.33;;;9.98;;
49502;SDS011;35409;48.776;9.204;2023-01-29T07:42:47;11.38;;;7.35;;
49502;SDS011;35409;48.776;9.204;2023-01-29T07:45:13;11.50;;;7.65;;
49502;SDS011;35409;48.776;9.204;2023-01-29T07:47:38;13.48;;;7.75;;
49502;SDS011;35409;48.776;9.204;2023-01-29T07:50:04;13.02;;;7.43;;
49502;SDS011;35409;48.776;9.204;2023-01-29T07:52:31;9.65;;;7.00;;
49502;SDS011;35409;48.776;9.204;2023-01-29T07:54:57;11.77;;;7.38;;
49502;SDS011;35409;48.776;9.204;2023-01-29T07:57:23;14.88;;;7.65;;
49502;SDS011;35409;48.776;9.204;2023-01-29T07:59:49;11.30;;;8.00;;
49502;SDS011;35409;48.776;9.204;2023-01-29T08:02:15;10.60;;;7.43;;
49502;SDS011;35409;48.776;9.204;2023-01-29T08:04:41;12.25;;;7.55;;
49502;SDS011;35409;48.776;9.204;2023-01-29T08:07:06;12.82;;;8.27;;
49502;SDS011;35409;48.776;9.204;2023-01-29T08:09:33;10.13;;;7.07;;
49502;SDS011;35409;48.776;9.204;2023-01-29T08:12:00;11.60;;;7.03;;
49502;SDS011;35409;48.776;9.204;2023-01-29T08:14:25;10.20;;;7.50;;
49502;SDS011;35409;48.776;9.204;2023-01-29T08:16:51;9.80;;;6.93;;
49502;SDS011;35409;48.776;9.204;2023-01-29T08:19:16;12.07;;;7.50;;
49502;SDS011;35409;48.776;9.204;2023-01-29T08:21:42;10.52;;;7.40;;
49502;SDS011;35409;48.776;9.204;2023-01-29T08:24:08;13.13;;;7.15;;
49502;SDS011;35409;48.776;9.204;2023-01-29T08:26:33;13.32;;;7.30;;
49502;SDS011;35409;48.776;9.204;2023-01-29T08:28:59;11.98;;;6.95;;
49502;SDS011;35409;48.776;9.204;2023-01-29T08:31:24;11.35;;;7.25;;
49502;SDS011;35409;48.776;9.204;2023-01-29T08:33:52;10.23;;;6.95;;
49502;SDS011;35409;48.776;9.204;2023-01-29T08:36:19;12.20;;;7.45;;
49502;SDS011;35409;48.776;9.204;2023-01-29T08:38:45;14.23;;;7.60;;
49502;SDS011;35409;48.776;9.204;2023-01-29T08:41:10;12.15;;;7.65;;
49502;SDS011;35409;48.776;9.204;2023-01-29T08:43:36;11.52;;;6.90;;
49502;SDS011;35409;48.776;9.204;2023-01-29T08:46:05;11.77;;;7.30;;
49502;SDS011;35409;48.776;9.204;2023-01-29T08:48:32;9.93;;;7.00;;
49502;SDS011;35409;48.776;9.204;2023-01-29T08:50:58;12.32;;;7.57;;
49502;SDS011;35409;48.776;9.204;2023-01-29T08:53:24;10.65;;;6.80;;
49502;SDS011;35409;48.776;9.204;2023-01-29T08:55:50;11.80;;;7.75;;
49502;SDS011;35409;48.776;9.204;2023-01-29T08:58:16;9.23;;;6.82;;
49502;SDS011;35409;48.776;9.204;2023-01-29T09:00:42;11.73;;;7.75;;
49502;SDS011;35409;48.776;9.204;2023-01-29T09:03:08;11.55;;;7.78;;
49502;SDS011;35409;48.776;9.204;2023-01-29T09:05:34;12.48;;;7.70;;
49502;SDS011;35409;48.776;9.204;2023-01-29T09:08:01;12.15;;;7.68;;
49502;SDS011;35409;48.776;9.204;2023-01-29T09:10:27;10.82;;;7.43;;
49502;SDS011;35409;48.776;9.204;2023-01-29T09:12:52;15.55;;;7.57;;
49502;SDS011;35409;48.776;9.204;2023-01-29T09:15:18;10.85;;;7.85;;
49502;SDS011;35409;48.776;9.204;2023-01-29T09:17:44;13.82;;;8.20;;
49502;SDS011;35409;48.776;9.204;2023-01-29T09:20:09;11.32;;;8.15;;
49502;SDS011;35409;48.776;9.204;2023-01-29T09:22:35;10.55;;;7.28;;
49502;SDS011;35409;48.776;9.204;2023-01-29T09:25:01;13.15;;;8.23;;
49502;SDS011;35409;48.776;9.204;2023-01-29T09:27:27;13.60;;;7.80;;
49502;SDS011;35409;48.776;9.204;2023-01-29T09:29:52;14.20;;;8.73;;
49502;SDS011;35409;48.776;9.204;2023-01-29T09:32:18;14.95;;;8.40;;
49502;SDS011;35409;48.776;9.204;2023-01-29T09:34:44;14.52;;;8.25;;
49502;SDS011;35409;48.776;9.204;2023-01-29T09:37:09;12.30;;;8.00;;
49502;SDS011;35409;48.776;9.204;2023-01-29T09:39:35;16.02;;;8.63;;
49502;SDS011;35409;48.776;9.204;2023-01-29T09:47:22;13.43;;;8.50;;
49502;SDS011;35409;48.776;9.204;2023-01-29T09:49:57;14.57;;;8.87;;
49502;SDS011;35409;48.776;9.204;2023-01-29T09:57:55;11.73;;;8.18;;
49502;SDS011;35409;48.776;9.204;2023-01-29T10:03:03;11.52;;;8.95;;
49502;SDS011;35409;48.776;9.204;2023-01-29T10:08:19;12.65;;;8.85;;
49502;SDS011;35409;48.776;9.204;2023-01-29T10:14:03;10.50;;;7.80;;
49502;SDS011;35409;48.776;9.204;2023-01-29T10:16:40;11.02;;;8.25;;
49502;SDS011;35409;48.776;9.204;2023-01-29T10:25:19;14.10;;;9.13;;
49502;SDS011;35409;48.776;9.204;2023-01-29T10:27:47;14.20;;;9.50;;
49502;SDS011;35409;48.776;9.204;2023-01-29T10:30:38;10.73;;;8.77;;
49502;SDS011;35409;48.776;9.204;2023-01-29T10:33:05;9.70;;;8.20;;
49502;SDS011;35409;48.776;9.204;2023-01-29T10:35:51;18.40;;;8.70;;
49502;SDS011;35409;48.776;9.204;2023-01-29T10:38:42;14.00;;;9.38;;
49502;SDS011;35409;48.776;9.204;2023-01-29T10:52:02;12.68;;;8.40;;
49502;SDS011;35409;48.776;9.204;2023-01-29T11:00:26;10.43;;;8.13;;
49502;SDS011;35409;48.776;9.204;2023-01-29T11:02:55;13.68;;;8.88;;
49502;SDS011;35409;48.776;9.204;2023-01-29T11:05:25;12.35;;;8.52;;
49502;SDS011;35409;48.776;9.204;2023-01-29T11:11:06;10.43;;;8.45;;
49502;SDS011;35409;48.776;9.204;2023-01-29T11:13:35;10.80;;;8.65;;
49502;SDS011;35409;48.776;9.204;2023-01-29T11:16:16;11.73;;;8.60;;
49502;SDS011;35409;48.776;9.204;2023-01-29T11:18:52;12.18;;;8.50;;
49502;SDS011;35409;48.776;9.204;2023-01-29T11:21:23;13.75;;;8.70;;
49502;SDS011;35409;48.776;9.204;2023-01-29T11:24:04;12.82;;;9.52;;
49502;SDS011;35409;48.776;9.204;2023-01-29T11:26:32;13.05;;;9.35;;
49502;SDS011;35409;48.776;9.204;2023-01-29T11:29:02;11.73;;;9.38;;
49502;SDS011;35409;48.776;9.204;2023-01-29T11:31:36;11.80;;;9.68;;
49502;SDS011;35409;48.776;9.204;2023-01-29T11:34:22;11.38;;;9.52;;
49502;SDS011;35409;48.776;9.204;2023-01-29T11:36:58;15.13;;;10.60;;
49502;SDS011;35409;48.776;9.204;2023-01-29T11:39:26;15.45;;;9.85;;
49502;SDS011;35409;48.776;9.204;2023-01-29T11:42:02;13.32;;;8.85;;
49502;SDS011;35409;48.776;9.204;2023-01-29T11:47:24;13.15;;;9.43;;
49502;SDS011;35409;48.776;9.204;2023-01-29T11:49:54;12.50;;;8.70;;
49502;SDS011;35409;48.776;9.204;2023-01-29T11:52:23;12.02;;;9.48;;
49502;SDS011;35409;48.776;9.204;2023-01-29T11:55:03;12.50;;;8.95;;
49502;SDS011;35409;48.776;9.204;2023-01-29T11:57:33;12.00;;;9.27;;
49502;SDS011;35409;48.776;9.204;2023-01-29T12:00:02;10.52;;;8.63;;
49502;SDS011;35409;48.776;9.204;2023-01-29T12:02:32;11.10;;;8.32;;
49502;SDS011;35409;48.776;9.204;2023-01-29T12:05:04;9.43;;;7.70;;
49502;SDS011;35409;48.776;9.204;2023-01-29T12:07:34;11.82;;;8.80;;
49502;SDS011;35409;48.776;9.204;2023-01-29T12:10:28;11.52;;;8.77;;
49502;SDS011;35409;48.776;9.204;2023-01-29T12:15:45;13.50;;;8.48;;
49502;SDS011;35409;48.776;9.204;2023-01-29T12:18:20;11.18;;;8.63;;
49502;SDS011;35409;48.776;9.204;2023-01-29T12:20:53;14.88;;;8.80;;
49502;SDS011;35409;48.776;9.204;2023-01-29T12:26:14;15.18;;;8.77;;
49502;SDS011;35409;48.776;9.204;2023-01-29T12:28:49;10.10;;;8.10;;
49502;SDS011;35409;48.776;9.204;2023-01-29T12:39:45;12.80;;;8.65;;
49502;SDS011;35409;48.776;9.204;2023-01-29T12:42:15;13.43;;;8.75;;
49502;SDS011;35409;48.776;9.204;2023-01-29T12:45:05;13.65;;;9.30;;
49502;SDS011;35409;48.776;9.204;2023-01-29T12:47:36;12.73;;;9.73;;
49502;SDS011;35409;48.776;9.204;2023-01-29T12:50:28;16.17;;;10.13;;
49502;SDS011;35409;48.776;9.204;2023-01-29T12:58:19;11.88;;;9.50;;
49502;SDS011;35409;48.776;9.204;2023-01-29T13:00:47;12.05;;;9.02;;
49502;SDS011;35409;48.776;9.204;2023-01-29T13:03:22;12.07;;;8.52;;
49502;SDS011;35409;48.776;9.204;2023-01-29T13:06:14;15.45;;;9.88;;
49502;SDS011;35409;48.776;9.204;2023-01-29T13:08:51;13.07;;;9.45;;
49502;SDS011;35409;48.776;9.204;2023-01-29T13:11:34;13.23;;;9.70;;
49502;SDS011;35409;48.776;9.204;2023-01-29T13:14:11;13.23;;;10.02;;
49502;SDS011;35409;48.776;9.204;2023-01-29T13:16:44;14.13;;;10.15;;
49502;SDS011;35409;48.776;9.204;2023-01-29T13:19:17;11.27;;;9.13;;
49502;SDS011;35409;48.776;9.204;2023-01-29T13:21:51;14.35;;;8.73;;
49502;SDS011;35409;48.776;9.204;2023-01-29T13:24:22;13.80;;;8.93;;
49502;SDS011;35409;48.776;9.204;2023-01-29T13:26:49;12.98;;;8.85;;
49502;SDS011;35409;48.776;9.204;2023-01-29T13:29:19;12.48;;;9.55;;
49502;SDS011;35409;48.776;9.204;2023-01-29T13:31:50;11.27;;;8.77;;
49502;SDS011;35409;48.776;9.204;2023-01-29T13:36:56;12.27;;;8.70;;
49502;SDS011;35409;48.776;9.204;2023-01-29T13:39:26;12.88;;;8.10;;
49502;SDS011;35409;48.776;9.204;2023-01-29T13:41:57;13.65;;;9.02;;
49502;SDS011;35409;48.776;9.204;2023-01-29T13:44:34;12.60;;;8.77;;
49502;SDS011;35409;48.776;9.204;2023-01-29T13:47:03;13.63;;;9.40;;
49502;SDS011;35409;48.776;9.204;2023-01-29T13:54:57;11.88;;;8.75;;
49502;SDS011;35409;48.776;9.204;2023-01-29T13:57:51;13.05;;;8.90;;
49502;SDS011;35409;48.776;9.204;2023-01-29T14:07:56;13.00;;;9.30;;
49502;SDS011;35409;48.776;9.204;2023-01-29T14:10:27;11.80;;;8.95;;
49502;SDS011;35409;48.776;9.204;2023-01-29T14:16:24;11.57;;;8.95;;
49502;SDS011;35409;48.776;9.204;2023-01-29T14:18:33;10.85;;;7.72;;
49502;SDS011;35409;48.776;9.204;2023-01-29T14:21:03;14.30;;;9.23;;
49502;SDS011;35409;48.776;9.204;2023-01-29T14:26:19;11.68;;;8.65;;
49502;SDS011;35409;48.776;9.204;2023-01-29T14:32:22;13.70;;;9.63;;
49502;SDS011;35409;48.776;9.204;2023-01-29T14:34:40;14.60;;;9.57;;
49502;SDS011;35409;48.776;9.204;2023-01-29T14:39:49;19.85;;;9.90;;
49502;SDS011;35409;48.776;9.204;2023-01-29T14:42:26;13.80;;;9.75;;
49502;SDS011;35409;48.776;9.204;2023-01-29T14:45:06;15.45;;;10.68;;
49502;SDS011;35409;48.776;9.204;2023-01-29T14:52:48;19.00;;;11.75;;
49502;SDS011;35409;48.776;9.204;2023-01-29T14:55:22;17.50;;;11.52;;
49502;SDS011;35409;48.776;9.204;2023-01-29T14:57:54;13.98;;;10.60;;
49502;SDS011;35409;48.776;9.204;2023-01-29T15:00:29;16.50;;;11.35;;
49502;SDS011;35409;48.776;9.204;2023-01-29T15:02:58;16.58;;;11.20;;
49502;SDS011;35409;48.776;9.204;2023-01-29T15:05:34;16.63;;;10.73;;
49502;SDS011;35409;48.776;9.204;2023-01-29T15:08:19;15.90;;;10.10;;
49502;SDS011;35409;48.776;9.204;2023-01-29T15:11:26;19.63;;;12.43;;
49502;SDS011;35409;48.776;9.204;2023-01-29T15:17:03;19.75;;;11.68;;
49502;SDS011;35409;48.776;9.204;2023-01-29T15:19:34;18.25;;;12.38;;
49502;SDS011;35409;48.776;9.204;2023-01-29T15:22:11;21.50;;;12.75;;
49502;SDS011;35409;48.776;9.204;2023-01-29T15:24:37;18.20;;;10.93;;
49502;SDS011;35409;48.776;9.204;2023-01-29T15:27:12;14.88;;;9.80;;
49502;SDS011;35409;48.776;9.204;2023-01-29T15:29:40;16.10;;;9.35;;
49502;SDS011;35409;48.776;9.204;2023-01-29T15:32:09;14.25;;;9.93;;
49502;SDS011;35409;48.776;9.204;2023-01-29T15:34:41;15.35;;;10.05;;
49502;SDS011;35409;48.776;9.204;2023-01-29T15:37:22;17.30;;;9.35;;
49502;SDS011;35409;48.776;9.204;2023-01-29T15:39:49;17.73;;;10.60;;
49502;SDS011;35409;48.776;9.204;2023-01-29T15:42:14;15.93;;;9.93;;
49502;SDS011;35409;48.776;9.204;2023-01-29T15:44:45;18.02;;;9.88;;
49502;SDS011;35409;48.776;9.204;2023-01-29T15:47:11;15.43;;;9.60;;
49502;SDS011;35409;48.776;9.204;2023-01-29T15:49:38;15.05;;;9.82;;
49502;SDS011;35409;48.776;9.204;2023-01-29T15:52:06;12.68;;;9.05;;
49502;SDS011;35409;48.776;9.204;2023-01-29T15:54:39;13.98;;;8.88;;
49502;SDS011;35409;48.776;9.204;2023-01-29T15:57:04;16.35;;;10.00;;
49502;SDS011;35409;48.776;9.204;2023-01-29T15:59:34;16.60;;;10.52;;
49502;SDS011;35409;48.776;9.204;2023-01-29T16:02:17;16.40;;;10.05;;
49502;SDS011;35409;48.776;9.204;2023-01-29T16:04:58;16.40;;;10.68;;
49502;SDS011;35409;48.776;9.204;2023-01-29T16:07:24;16.08;;;9.68;;
49502;SDS011;35409;48.776;9.204;2023-01-29T16:09:51;15.18;;;10.13;;
49502;SDS011;35409;48.776;9.204;2023-01-29T16:12:17;20.10;;;11.18;;
49502;SDS011;35409;48.776;9.204;2023-01-29T16:14:43;15.77;;;10.98;;
49502;SDS011;35409;48.776;9.204;2023-01-29T16:17:19;21.90;;;11.85;;
49502;SDS011;35409;48.776;9.204;2023-01-29T16:19:53;16.77;;;10.48;;
49502;SDS011;35409;48.776;9.204;2023-01-29T16:22:20;17.98;;;10.55;;
49502;SDS011;35409;48.776;9.204;2023-01-29T16:24:45;17.92;;;11.05;;
49502;SDS011;35409;48.776;9.204;2023-01-29T16:27:13;15.90;;;9.63;;
49502;SDS011;35409;48.776;9.204;2023-01-29T16:29:39;19.55;;;10.85;;
49502;SDS011;35409;48.776;9.204;2023-01-29T16:32:05;19.83;;;11.48;;
49502;SDS011;35409;48.776;9.204;2023-01-29T16:34:39;20.65;;;11.50;;
49502;SDS011;35409;48.776;9.204;2023-01-29T16:37:15;17.70;;;11.68;;
49502;SDS011;35409;48.776;9.204;2023-01-29T16:39:43;19.10;;;11.13;;
49502;SDS011;35409;48.776;9.204;2023-01-29T16:45:03;18.83;;;11.30;;
49502;SDS011;35409;48.776;9.204;2023-01-29T16:57:36;19.45;;;11.88;;
49502;SDS011;35409;48.776;9.204;2023-01-29T17:00:05;23.00;;;12.82;;
49502;SDS011;35409;48.776;9.204;2023-01-29T17:02:35;21.05;;;12.23;;
49502;SDS011;35409;48.776;9.204;2023-01-29T17:05:07;23.20;;;13.43;;
49502;SDS011;35409;48.776;9.204;2023-01-29T17:07:35;20.90;;;11.57;;
49502;SDS011;35409;48.776;9.204;2023-01-29T17:10:02;20.65;;;12.80;;
49502;SDS011;35409;48.776;9.204;2023-01-29T17:12:30;20.75;;;11.77;;
49502;SDS011;35409;48.776;9.204;2023-01-29T17:17:30;25.63;;;13.75;;
49502;SDS011;35409;48.776;9.204;2023-01-29T17:20:17;21.63;;;12.45;;
49502;SDS011;35409;48.776;9.204;2023-01-29T17:22:42;23.42;;;13.38;;
49502;SDS011;35409;48.776;9.204;2023-01-29T17:25:14;27.15;;;14.60;;
49502;SDS011;35409;48.776;9.204;2023-01-29T17:27:40;27.33;;;14.82;;
49502;SDS011;35409;48.776;9.204;2023-01-29T17:30:14;30.70;;;16.75;;
49502;SDS011;35409;48.776;9.204;2023-01-29T17:32:41;25.02;;;14.38;;
49502;SDS011;35409;48.776;9.204;2023-01-29T17:35:07;22.50;;;13.75;;
49502;SDS011;35409;48.776;9.204;2023-01-29T17:37:36;28.65;;;15.65;;